createdAt,value
2022-11-10T00:01:16.089Z,11.70
2022-11-10T00:04:23.836Z,11.18
2022-11-10T00:07:30.930Z,11.93
2022-11-10T00:11:00.283Z,11.95
2022-11-10T00:14:25.463Z,8.65
2022-11-10T00:17:33.890Z,8.15
2022-11-10T00:20:41.484Z,8.55
2022-11-10T00:23:51.015Z,8.88
2022-11-10T00:26:58.190Z,6.40
2022-11-10T00:30:05.769Z,8.18
2022-11-10T00:33:13.510Z,8.77
2022-11-10T00:36:20.820Z,5.30
2022-11-10T00:39:28.220Z,5.32
2022-11-10T00:42:38.700Z,5.95
2022-11-10T00:45:47.836Z,4.72
2022-11-10T00:48:54.743Z,5.20
2022-11-10T00:52:01.641Z,7.15
2022-11-10T00:55:09.004Z,7.88
2022-11-10T00:58:16.816Z,7.22
2022-11-10T01:01:28.372Z,6.80
2022-11-10T01:04:36.279Z,8.10
2022-11-10T01:07:44.532Z,9.10
2022-11-10T01:10:51.967Z,6.22
2022-11-10T01:13:59.653Z,5.65
2022-11-10T01:17:06.850Z,5.30
2022-11-10T01:20:14.260Z,4.80
2022-11-10T01:23:21.397Z,5.25
2022-11-10T01:26:29.280Z,6.40
2022-11-10T01:29:36.207Z,6.28
2022-11-10T01:32:43.923Z,6.10
2022-11-10T01:35:51.113Z,5.80
2022-11-10T01:38:59.117Z,5.32
2022-11-10T01:42:06.109Z,5.32
2022-11-10T01:45:55.638Z,5.00
2022-11-10T01:49:04.260Z,4.40
2022-11-10T01:52:15.528Z,5.30
2022-11-10T01:55:25.715Z,4.90
2022-11-10T01:58:40.888Z,4.65
2022-11-10T02:01:50.773Z,4.50
2022-11-10T02:04:58.609Z,5.15
2022-11-10T02:08:07.091Z,4.97
2022-11-10T02:11:16.326Z,4.75
2022-11-10T02:14:24.262Z,4.75
2022-11-10T02:17:32.037Z,5.45
2022-11-10T02:20:39.985Z,5.85
2022-11-10T02:23:54.781Z,4.50
2022-11-10T02:27:01.480Z,4.78
2022-11-10T02:30:09.919Z,4.75
2022-11-10T02:33:20.851Z,5.00
2022-11-10T02:36:28.798Z,7.65
2022-11-10T02:39:36.159Z,4.00
2022-11-10T02:42:43.481Z,4.30
2022-11-10T02:45:50.060Z,3.50
2022-11-10T02:48:57.568Z,4.60
2022-11-10T02:52:05.162Z,3.40
2022-11-10T02:55:12.321Z,4.47
2022-11-10T02:58:19.418Z,5.47
2022-11-10T03:01:26.882Z,4.05
2022-11-10T03:04:34.606Z,4.57
2022-11-10T03:07:42.147Z,5.05
2022-11-10T03:10:49.256Z,3.55
2022-11-10T03:14:02.929Z,3.60
2022-11-10T03:17:10.559Z,3.20
2022-11-10T03:20:18.774Z,4.45
2022-11-10T03:23:26.528Z,4.18
2022-11-10T03:26:33.367Z,3.33
2022-11-10T03:29:41.076Z,3.33
2022-11-10T03:32:48.333Z,3.60
2022-11-10T03:35:55.991Z,4.20
2022-11-10T03:39:02.907Z,6.13
2022-11-10T03:42:10.069Z,5.82
2022-11-10T03:45:17.980Z,5.22
2022-11-10T03:48:25.649Z,6.07
2022-11-10T03:51:32.862Z,6.65
2022-11-10T03:54:40.062Z,5.57
2022-11-10T03:57:47.028Z,7.57
2022-11-10T04:00:55.929Z,6.78
2022-11-10T04:04:03.021Z,7.28
2022-11-10T04:07:32.634Z,7.03
2022-11-10T04:10:40.090Z,9.25
2022-11-10T04:14:07.577Z,5.00
2022-11-10T04:17:15.653Z,5.40
2022-11-10T04:20:22.864Z,4.68
2022-11-10T04:23:37.165Z,6.43
2022-11-10T04:26:45.037Z,5.22
2022-11-10T04:29:53.665Z,5.32
2022-11-10T04:33:01.429Z,5.30
2022-11-10T04:36:09.252Z,7.13
2022-11-10T04:39:16.505Z,8.02
2022-11-10T04:42:23.561Z,6.03
2022-11-10T04:45:31.139Z,6.20
2022-11-10T04:48:39.056Z,5.78
2022-11-10T04:51:46.647Z,5.25
2022-11-10T04:54:54.204Z,3.58
2022-11-10T04:58:01.167Z,3.97
2022-11-10T05:01:08.570Z,5.72
2022-11-10T05:04:16.527Z,5.50
2022-11-10T05:07:23.335Z,4.20
2022-11-10T05:10:31.393Z,7.40
2022-11-10T05:13:38.912Z,9.15
2022-11-10T05:16:46.036Z,8.75
2022-11-10T05:19:53.278Z,10.02
2022-11-10T05:23:18.525Z,6.70
2022-11-10T05:26:25.899Z,6.00
2022-11-10T05:29:33.940Z,4.80
2022-11-10T05:32:41.856Z,4.30
2022-11-10T05:35:53.429Z,6.22
2022-11-10T05:39:01.288Z,6.35
2022-11-10T05:42:08.357Z,5.25
2022-11-10T05:45:15.982Z,6.32
2022-11-10T05:48:23.200Z,6.63
2022-11-10T05:51:30.436Z,6.00
2022-11-10T05:54:38.325Z,6.47
2022-11-10T05:57:47.589Z,5.20
2022-11-10T06:00:55.367Z,5.05
2022-11-10T06:04:03.579Z,5.95
2022-11-10T06:07:10.961Z,6.22
2022-11-10T06:10:18.325Z,7.50
2022-11-10T06:13:27.814Z,6.88
2022-11-10T06:16:38.817Z,7.70
2022-11-10T06:19:45.753Z,7.50
2022-11-10T06:23:08.931Z,8.38
2022-11-10T06:26:17.357Z,6.43
2022-11-10T06:29:26.909Z,4.90
2022-11-10T06:32:36.192Z,5.10
2022-11-10T06:35:45.383Z,7.25
2022-11-10T06:38:52.947Z,7.35
2022-11-10T06:42:00.463Z,8.18
2022-11-10T06:45:07.855Z,7.65
2022-11-10T06:48:18.986Z,7.80
2022-11-10T06:51:26.302Z,6.32
2022-11-10T06:54:33.061Z,4.18
2022-11-10T06:57:41.752Z,4.53
2022-11-10T07:00:50.188Z,5.95
2022-11-10T07:04:18.548Z,6.03
2022-11-10T07:07:25.002Z,5.30
2022-11-10T07:10:32.460Z,5.00
2022-11-10T07:13:39.532Z,4.82
2022-11-10T07:16:46.904Z,5.15
2022-11-10T07:19:53.303Z,5.32
2022-11-10T07:23:05.924Z,6.40
2022-11-10T07:26:13.942Z,5.85
2022-11-10T07:29:21.105Z,4.60
2022-11-10T07:32:29.099Z,3.72
2022-11-10T07:35:36.692Z,3.55
2022-11-10T07:38:44.082Z,4.70
2022-11-10T07:41:52.847Z,5.13
2022-11-10T07:45:00.787Z,6.20
2022-11-10T07:48:09.045Z,5.95
2022-11-10T07:51:15.789Z,4.60
2022-11-10T07:54:23.426Z,8.30
2022-11-10T07:57:30.512Z,3.95
2022-11-10T08:00:38.627Z,2.97
2022-11-10T08:03:48.729Z,3.60
2022-11-10T08:06:55.742Z,3.92
2022-11-10T08:10:03.251Z,3.63
2022-11-10T08:13:12.675Z,3.00
2022-11-10T08:16:19.753Z,3.10
2022-11-10T08:19:26.536Z,3.30
2022-11-10T08:22:34.267Z,3.20
2022-11-10T08:25:41.629Z,2.95
2022-11-10T08:28:48.084Z,3.80
2022-11-10T08:31:55.309Z,3.47
2022-11-10T08:35:02.355Z,3.60
2022-11-10T08:38:16.123Z,7.40
2022-11-10T08:41:23.396Z,5.70
2022-11-10T08:44:31.360Z,3.80
2022-11-10T08:47:38.067Z,3.38
2022-11-10T08:50:45.132Z,3.33
2022-11-10T08:53:52.508Z,4.57
2022-11-10T08:56:59.733Z,3.22
2022-11-10T09:00:07.686Z,4.13
2022-11-10T09:03:19.988Z,3.67
2022-11-10T09:06:51.129Z,4.90
2022-11-10T09:10:06.616Z,5.05
2022-11-10T09:13:17.044Z,5.28
2022-11-10T09:16:24.037Z,8.60
2022-11-10T09:19:32.352Z,22.48
2022-11-10T09:22:39.681Z,13.70
2022-11-10T09:25:51.983Z,11.07
2022-11-10T09:29:00.177Z,8.68
2022-11-10T09:32:07.379Z,7.03
2022-11-10T09:35:14.657Z,11.88
2022-11-10T09:38:23.339Z,10.50
2022-11-10T09:41:31.983Z,28.60
2022-11-10T09:44:45.508Z,15.98
2022-11-10T09:48:21.238Z,13.90
2022-11-10T09:51:34.133Z,8.45
2022-11-10T09:54:46.777Z,9.93
2022-11-10T09:57:56.425Z,11.98
2022-11-10T10:01:31.286Z,6.43
2022-11-10T10:04:54.202Z,14.55
2022-11-10T10:08:08.673Z,17.52
2022-11-10T10:11:28.428Z,17.25
2022-11-10T10:14:48.099Z,8.48
2022-11-10T10:18:01.701Z,18.20
2022-11-10T10:21:31.780Z,10.80
2022-11-10T10:24:39.613Z,9.77
2022-11-10T10:27:48.496Z,11.85
2022-11-10T10:31:03.098Z,10.45
2022-11-10T10:34:21.727Z,9.63
2022-11-10T10:37:31.765Z,8.00
2022-11-10T10:40:41.248Z,9.20
2022-11-10T10:43:51.115Z,8.80
2022-11-10T10:47:02.118Z,7.45
2022-11-10T10:50:34.561Z,8.18
2022-11-10T10:53:48.843Z,11.05
2022-11-10T10:57:26.474Z,8.60
2022-11-10T11:00:34.472Z,9.02
2022-11-10T11:03:51.125Z,9.65
2022-11-10T11:07:02.322Z,13.18
2022-11-10T11:10:27.132Z,38.67
2022-11-10T11:13:34.757Z,137.50
2022-11-10T11:16:56.365Z,63.75
2022-11-10T11:20:04.732Z,30.52
2022-11-10T11:23:50.710Z,48.85
2022-11-10T11:27:07.213Z,37.63
2022-11-10T11:30:22.849Z,14.30
2022-11-10T11:34:04.819Z,38.17
2022-11-10T11:37:36.817Z,50.15
2022-11-10T11:41:08.188Z,52.50
2022-11-10T11:44:19.776Z,46.92
2022-11-10T11:47:50.062Z,20.85
2022-11-10T11:51:05.263Z,17.88
2022-11-10T11:54:27.519Z,27.33
2022-11-10T11:57:40.592Z,22.00
2022-11-10T12:01:29.741Z,29.55
2022-11-10T12:04:47.088Z,31.30
2022-11-10T12:08:09.848Z,24.33
2022-11-10T12:11:26.178Z,22.50
2022-11-10T12:15:05.267Z,20.30
2022-11-10T12:18:32.622Z,18.13
2022-11-10T12:22:17.631Z,15.60
2022-11-10T12:25:57.837Z,14.65
2022-11-10T12:29:05.652Z,13.60
2022-11-10T12:32:22.290Z,14.68
2022-11-10T12:35:36.041Z,13.90
2022-11-10T12:39:12.198Z,12.57
2022-11-10T12:42:28.618Z,12.43
2022-11-10T12:45:46.485Z,11.32
2022-11-10T12:49:06.972Z,11.10
2022-11-10T12:52:19.008Z,10.88
2022-11-10T12:55:49.028Z,10.05
2022-11-10T12:59:20.949Z,9.90
2022-11-10T13:02:44.176Z,9.02
2022-11-10T13:05:57.637Z,9.73
2022-11-10T13:09:06.018Z,9.82
2022-11-10T13:12:26.917Z,10.50
2022-11-10T13:15:38.819Z,10.88
2022-11-10T13:18:45.474Z,10.25
2022-11-10T13:21:52.933Z,10.27
2022-11-10T13:25:36.799Z,10.18
2022-11-10T13:28:49.629Z,9.80
2022-11-10T13:31:59.069Z,8.75
2022-11-10T13:35:30.467Z,9.13
2022-11-10T13:38:39.520Z,9.85
2022-11-10T13:42:06.011Z,7.25
2022-11-10T13:45:31.565Z,5.63
2022-11-10T13:49:15.282Z,5.15
2022-11-10T13:52:45.553Z,3.83
2022-11-10T13:56:02.582Z,4.03
2022-11-10T13:59:23.546Z,4.10
2022-11-10T14:02:39.937Z,3.67
2022-11-10T14:05:59.474Z,4.07
2022-11-10T14:09:42.340Z,3.47
2022-11-10T14:12:57.188Z,3.65
2022-11-10T14:16:05.595Z,3.67
2022-11-10T14:19:15.975Z,3.70
2022-11-10T14:22:44.171Z,4.10
2022-11-10T14:26:00.776Z,4.50
2022-11-10T14:29:22.764Z,5.03
2022-11-10T14:32:30.311Z,4.78
2022-11-10T14:35:58.181Z,4.70
2022-11-10T14:39:07.732Z,4.35
2022-11-10T14:42:19.561Z,4.43
2022-11-10T14:45:30.427Z,5.03
2022-11-10T14:48:40.467Z,5.82
2022-11-10T14:51:48.978Z,6.07
2022-11-10T14:54:56.428Z,6.90
2022-11-10T14:58:15.791Z,6.75
2022-11-10T15:01:36.959Z,8.63
2022-11-10T15:04:46.036Z,5.82
2022-11-10T15:07:56.491Z,6.35
2022-11-10T15:11:05.490Z,6.60
2022-11-10T15:14:33.639Z,6.60
2022-11-10T15:17:52.147Z,6.57
2022-11-10T15:21:05.704Z,6.22
2022-11-10T15:24:12.947Z,6.38
2022-11-10T15:27:27.037Z,7.00
2022-11-10T15:30:34.907Z,6.70
2022-11-10T15:33:49.579Z,6.68
2022-11-10T15:37:32.355Z,6.43
2022-11-10T15:40:42.676Z,6.55
2022-11-10T15:43:50.661Z,8.90
2022-11-10T15:46:59.986Z,7.63
2022-11-10T15:50:10.816Z,7.20
2022-11-10T15:53:25.788Z,5.60
2022-11-10T15:56:33.495Z,6.50
2022-11-10T15:59:40.661Z,5.68
2022-11-10T16:02:48.525Z,5.28
2022-11-10T16:05:56.871Z,5.40
2022-11-10T16:09:04.395Z,6.05
2022-11-10T16:12:18.581Z,4.75
2022-11-10T16:15:26.223Z,4.85
2022-11-10T16:18:33.821Z,4.57
2022-11-10T16:21:41.014Z,4.05
2022-11-10T16:24:48.881Z,4.47
2022-11-10T16:27:55.996Z,4.72
2022-11-10T16:31:03.292Z,4.90
2022-11-10T16:34:18.034Z,5.00
2022-11-10T16:37:26.562Z,5.28
2022-11-10T16:40:33.558Z,6.00
2022-11-10T16:43:43.971Z,6.22
2022-11-10T16:46:56.848Z,6.50
2022-11-10T16:50:12.114Z,6.80
2022-11-10T16:53:25.721Z,7.28
2022-11-10T16:56:33.690Z,6.55
2022-11-10T16:59:40.922Z,7.60
2022-11-10T17:03:01.027Z,7.28
2022-11-10T17:06:15.303Z,6.75
2022-11-10T17:09:26.698Z,7.50
2022-11-10T17:12:36.182Z,6.90
2022-11-10T17:15:43.740Z,7.75
2022-11-10T17:18:51.420Z,7.88
2022-11-10T17:21:59.243Z,6.70
2022-11-10T17:25:11.069Z,6.88
2022-11-10T17:28:19.605Z,6.90
2022-11-10T17:31:27.078Z,7.55
2022-11-10T17:34:34.480Z,7.93
2022-11-10T17:37:49.344Z,7.85
2022-11-10T17:40:58.173Z,7.72
2022-11-10T17:44:05.538Z,6.47
2022-11-10T17:47:12.986Z,5.72
2022-11-10T17:50:24.038Z,5.88
2022-11-10T17:53:31.761Z,5.80
2022-11-10T17:56:38.695Z,5.20
2022-11-10T17:59:46.949Z,5.13
2022-11-10T18:02:57.789Z,5.00
2022-11-10T18:06:08.031Z,4.07
2022-11-10T18:09:15.289Z,4.80
2022-11-10T18:12:27.594Z,4.60
2022-11-10T18:15:35.928Z,5.00
2022-11-10T18:18:43.517Z,4.90
2022-11-10T18:21:56.538Z,5.30
2022-11-10T18:25:11.352Z,5.28
2022-11-10T18:28:18.685Z,5.20
2022-11-10T18:31:25.603Z,4.50
2022-11-10T18:34:33.225Z,4.93
2022-11-10T18:37:40.890Z,4.45
2022-11-10T18:40:47.866Z,4.25
2022-11-10T18:43:55.299Z,4.32
2022-11-10T18:47:02.894Z,4.15
2022-11-10T18:50:10.419Z,4.50
2022-11-10T18:53:16.872Z,4.20
2022-11-10T18:56:24.098Z,4.30
2022-11-10T18:59:31.240Z,4.15
2022-11-10T19:02:38.683Z,3.78
2022-11-10T19:05:55.740Z,3.47
2022-11-10T19:09:06.606Z,3.63
2022-11-10T19:12:14.236Z,3.40
2022-11-10T19:15:22.428Z,3.50
2022-11-10T19:18:32.391Z,3.50
2022-11-10T19:21:40.175Z,4.40
2022-11-10T19:25:06.977Z,5.18
2022-11-10T19:28:16.118Z,5.07
2022-11-10T19:31:25.517Z,6.05
2022-11-10T19:34:32.706Z,6.18
2022-11-10T19:37:40.445Z,6.20
2022-11-10T19:40:48.146Z,5.95
2022-11-10T19:43:56.825Z,5.43
2022-11-10T19:47:04.921Z,5.68
2022-11-10T19:50:11.616Z,5.20
2022-11-10T19:53:18.601Z,5.57
2022-11-10T19:56:30.474Z,4.90
2022-11-10T19:59:54.208Z,4.82
2022-11-10T20:03:02.137Z,5.28
2022-11-10T20:06:12.464Z,4.32
2022-11-10T20:09:19.495Z,4.28
2022-11-10T20:12:26.539Z,4.80
2022-11-10T20:15:33.718Z,5.30
2022-11-10T20:18:41.221Z,5.72
2022-11-10T20:21:49.976Z,6.13
2022-11-10T20:24:57.467Z,5.95
2022-11-10T20:28:07.743Z,5.65
2022-11-10T20:31:23.004Z,6.40
2022-11-10T20:34:31.145Z,6.45
2022-11-10T20:37:38.035Z,6.10
2022-11-10T20:40:45.441Z,5.70
2022-11-10T20:43:53.623Z,6.65
2022-11-10T20:47:01.788Z,7.05
2022-11-10T20:50:14.801Z,7.43
2022-11-10T20:53:23.807Z,7.65
2022-11-10T20:56:32.386Z,6.78
2022-11-10T20:59:40.046Z,7.10
2022-11-10T21:02:46.745Z,7.40
2022-11-10T21:05:57.189Z,12.43
2022-11-10T21:09:07.633Z,12.10
2022-11-10T21:12:35.689Z,11.73
2022-11-10T21:15:45.451Z,8.32
2022-11-10T21:18:56.871Z,10.70
2022-11-10T21:22:06.453Z,10.85
2022-11-10T21:25:14.640Z,10.25
2022-11-10T21:28:21.678Z,10.50
2022-11-10T21:31:31.009Z,10.98
2022-11-10T21:34:38.563Z,10.13
2022-11-10T21:37:45.351Z,10.23
2022-11-10T21:40:52.304Z,11.88
2022-11-10T21:44:00.141Z,9.38
2022-11-10T21:47:07.511Z,10.02
2022-11-10T21:50:14.796Z,10.25
2022-11-10T21:53:22.430Z,10.55
2022-11-10T21:56:29.940Z,9.55
2022-11-10T21:59:37.729Z,10.20
2022-11-10T22:02:46.066Z,10.48
2022-11-10T22:05:53.947Z,10.30
2022-11-10T22:09:03.529Z,9.95
2022-11-10T22:12:33.355Z,9.80
2022-11-10T22:15:59.769Z,11.68
2022-11-10T22:19:10.938Z,11.35
2022-11-10T22:22:21.346Z,12.35
2022-11-10T22:25:28.782Z,12.75
2022-11-10T22:28:35.873Z,13.05
2022-11-10T22:31:42.358Z,13.52
2022-11-10T22:34:49.543Z,14.75
2022-11-10T22:37:57.185Z,13.00
2022-11-10T22:41:23.750Z,12.68
2022-11-10T22:44:32.239Z,12.88
2022-11-10T22:47:58.775Z,14.32
2022-11-10T22:51:07.024Z,16.90
2022-11-10T22:54:18.608Z,13.55
2022-11-10T22:57:26.807Z,14.43
2022-11-10T23:00:34.499Z,13.30
2022-11-10T23:03:42.232Z,14.73
2022-11-10T23:06:56.348Z,15.63
2022-11-10T23:10:03.272Z,15.27
2022-11-10T23:13:10.554Z,18.63
2022-11-10T23:16:22.328Z,20.35
2022-11-10T23:19:29.797Z,23.35
2022-11-10T23:22:37.152Z,19.58
2022-11-10T23:25:44.138Z,20.10
2022-11-10T23:28:52.698Z,26.13
2022-11-10T23:32:00.132Z,27.65
2022-11-10T23:35:07.187Z,26.25
2022-11-10T23:38:15.679Z,25.05
2022-11-10T23:41:27.062Z,29.95
2022-11-10T23:44:35.333Z,28.17
2022-11-10T23:47:43.335Z,26.63
2022-11-10T23:50:51.021Z,19.80
2022-11-10T23:53:58.783Z,18.10
2022-11-10T23:57:06.056Z,14.32
